Time;durP1;ratioP1;P1;durP2;ratioP2;P2;SDS_P1;SDS_P2;PMS_P1;PMS_P2;Temp;Humidity;BMP_temperature;BMP_pressure;BME280_temperature;BME280_humidity;BME280_pressure;Samples;Min_cycle;Max_cycle;Signal;HPM_P1;HPM_P2
2021/04/13 00:01:16;;;;;;;11.93;5.90;;;3.70;79.40;;;;;;4915175;29;20066;-77
2021/04/13 00:03:52;;;;;;;8.20;5.85;;;3.60;79.30;;;;;;4917053;29;20044;-77
2021/04/13 00:06:44;;;;;;;8.00;6.00;;;3.50;80.00;;;;;;4916432;29;20020;-77
2021/04/13 00:09:26;;;;;;;9.95;6.55;;;3.40;80.20;;;;;;4903650;29;20031;-77
2021/04/13 00:11:59;;;;;;;10.95;6.22;;;3.40;79.60;;;;;;4898352;29;20044;-77
2021/04/13 00:14:34;;;;;;;11.40;7.30;;;3.30;79.60;;;;;;4898366;29;20064;-77
2021/04/13 00:17:05;;;;;;;8.52;5.70;;;3.30;79.60;;;;;;4898262;29;20035;-77
2021/04/13 00:19:49;;;;;;;8.48;6.55;;;3.30;79.60;;;;;;4884531;29;20079;-77
2021/04/13 00:22:15;;;;;;;12.48;6.57;;;3.30;79.70;;;;;;4898295;29;20036;-77
2021/04/13 00:24:41;;;;;;;11.25;6.38;;;3.20;79.70;;;;;;4881320;29;20044;-77
2021/04/13 00:27:13;;;;;;;10.20;6.88;;;3.20;79.70;;;;;;4897005;29;20112;-77
2021/04/13 00:29:39;;;;;;;8.25;6.53;;;3.20;79.70;;;;;;4897868;29;20165;-77
2021/04/13 00:32:06;;;;;;;9.60;6.70;;;3.20;79.80;;;;;;4898322;29;20103;-77
2021/04/13 00:35:29;;;;;;;10.75;6.57;;;3.10;79.70;;;;;;4897415;29;20066;-77
2021/04/13 00:37:29;;;;;;;10.65;6.30;;;3.10;79.80;;;;;;4898934;29;20048;-77
2021/04/13 00:40:12;;;;;;;7.72;6.07;;;3.10;79.90;;;;;;4882153;29;20162;-77
2021/04/13 00:42:38;;;;;;;10.75;6.60;;;3.10;80.00;;;;;;4890738;29;20064;-77
2021/04/13 00:45:11;;;;;;;10.38;6.45;;;3.00;80.00;;;;;;4902008;29;20024;-77
2021/04/13 00:47:38;;;;;;;10.52;6.38;;;3.10;80.20;;;;;;4904964;29;20032;-77
2021/04/13 00:50:43;;;;;;;8.68;6.00;;;3.10;80.10;;;;;;4901812;29;20123;-77
2021/04/13 00:53:14;;;;;;;9.95;5.88;;;3.10;80.30;;;;;;4895693;29;20040;-77
2021/04/13 00:55:45;;;;;;;11.20;5.97;;;3.10;80.30;;;;;;4901541;29;20040;-77
2021/04/13 00:58:28;;;;;;;7.75;5.55;;;3.00;80.30;;;;;;4901802;29;20036;-77
2021/04/13 01:00:58;;;;;;;9.40;6.57;;;3.00;80.30;;;;;;4902000;29;20033;-77
2021/04/13 01:03:26;;;;;;;9.70;6.15;;;3.10;80.20;;;;;;4901657;29;20040;-77
2021/04/13 01:05:56;;;;;;;10.75;5.82;;;3.10;80.20;;;;;;4918660;29;20024;-77
2021/04/13 01:08:39;;;;;;;10.48;6.88;;;3.10;80.10;;;;;;4920689;29;20461;-77
2021/04/13 01:11:17;;;;;;;17.67;7.07;;;3.00;79.80;;;;;;4882670;29;20037;-77
2021/04/13 01:13:56;;;;;;;11.70;6.63;;;2.90;80.70;;;;;;4881548;29;20033;-77
2021/04/13 01:16:26;;;;;;;8.02;5.93;;;2.80;80.30;;;;;;4882787;29;20024;-77
2021/04/13 01:18:56;;;;;;;14.55;6.43;;;2.90;80.10;;;;;;4885177;29;20070;-77
2021/04/13 01:21:42;;;;;;;9.73;6.65;;;2.90;80.00;;;;;;4920334;29;20032;-77
2021/04/13 01:26:45;;;;;;;10.63;6.53;;;2.90;79.60;;;;;;4919385;29;20028;-77
2021/04/13 01:29:13;;;;;;;9.40;6.35;;;2.90;79.80;;;;;;4905082;29;20085;-77
2021/04/13 01:31:48;;;;;;;9.10;6.47;;;3.00;79.90;;;;;;4899912;29;20432;-77
2021/04/13 01:34:40;;;;;;;12.43;6.80;;;3.00;79.80;;;;;;4888015;29;20024;-77
2021/04/13 01:37:20;;;;;;;8.75;6.38;;;2.90;79.80;;;;;;4899734;29;20067;-77
2021/04/13 01:40:00;;;;;;;12.57;7.53;;;2.90;79.90;;;;;;4899817;29;20178;-77
2021/04/13 01:42:31;;;;;;;14.70;6.95;;;2.90;80.00;;;;;;4899492;29;20052;-76
2021/04/13 01:45:07;;;;;;;10.40;6.68;;;2.80;80.00;;;;;;4884790;29;20109;-77
2021/04/13 01:47:33;;;;;;;11.35;6.70;;;2.80;80.10;;;;;;4904010;29;20036;-77
2021/04/13 01:50:05;;;;;;;11.13;6.75;;;2.80;80.10;;;;;;4910693;29;20047;-77
2021/04/13 01:52:34;;;;;;;12.63;7.38;;;2.70;80.00;;;;;;4906547;29;20028;-77
2021/04/13 01:55:10;;;;;;;10.93;7.75;;;2.80;79.90;;;;;;4901866;29;20063;-77
2021/04/13 01:58:01;;;;;;;11.63;7.43;;;2.80;79.80;;;;;;4900401;29;20462;-77
2021/04/13 02:00:39;;;;;;;10.68;7.35;;;2.70;79.80;;;;;;4910153;29;20059;-77
2021/04/13 02:03:12;;;;;;;11.00;7.20;;;2.70;80.00;;;;;;4900336;29;20500;-77
2021/04/13 02:05:46;;;;;;;12.50;7.22;;;2.70;80.20;;;;;;4900737;29;20214;-77
2021/04/13 02:08:20;;;;;;;11.85;7.38;;;2.70;80.30;;;;;;4899357;29;20024;-77
2021/04/13 02:11:09;;;;;;;13.07;7.63;;;2.60;80.40;;;;;;4899353;29;20025;-77
2021/04/13 02:13:38;;;;;;;;;;;2.60;80.60;;;;;;4881023;29;20065;-77
2021/04/13 02:16:24;;;;;;;15.90;6.80;;;2.60;80.50;;;;;;4880674;29;19908;-77
2021/04/13 02:18:52;;;;;;;11.45;7.22;;;2.50;80.60;;;;;;4881518;29;20483;-77
2021/04/13 02:21:31;;;;;;;10.90;6.85;;;2.60;80.50;;;;;;4881651;29;20029;-77
2021/04/13 02:24:13;;;;;;;10.80;6.78;;;2.60;80.50;;;;;;4881605;29;20432;-77
2021/04/13 02:26:51;;;;;;;13.45;7.32;;;2.50;80.20;;;;;;4885787;29;20025;-77
2021/04/13 02:29:19;;;;;;;10.38;6.75;;;2.60;80.20;;;;;;4900115;29;20028;-77
2021/04/13 02:31:58;;;;;;;9.70;6.90;;;2.70;80.80;;;;;;4900472;29;20448;-77
2021/04/13 02:34:28;;;;;;;12.05;7.85;;;2.60;80.10;;;;;;4905071;29;20036;-77
2021/04/13 02:37:00;;;;;;;11.02;7.38;;;2.60;80.20;;;;;;4919036;29;20060;-77
2021/04/13 02:39:30;;;;;;;13.82;7.50;;;2.50;80.60;;;;;;4918901;29;20044;-77
2021/04/13 02:42:14;;;;;;;17.65;8.43;;;2.50;80.80;;;;;;4918859;29;20064;-77
2021/04/13 02:44:40;;;;;;;12.02;6.97;;;2.50;80.80;;;;;;4909009;29;20028;-77
2021/04/13 02:47:10;;;;;;;15.50;7.72;;;2.60;80.70;;;;;;4918812;29;20099;-77
2021/04/13 02:49:41;;;;;;;15.05;8.23;;;2.50;80.60;;;;;;4917512;29;20024;-77
2021/04/13 02:52:14;;;;;;;11.82;7.97;;;2.50;80.80;;;;;;4917347;29;20040;-77
2021/04/13 02:54:44;;;;;;;13.05;8.32;;;2.40;81.00;;;;;;4911676;29;20144;-77
2021/04/13 02:57:26;;;;;;;15.27;8.23;;;2.40;80.90;;;;;;4882649;29;20418;-77
2021/04/13 02:59:58;;;;;;;14.88;7.60;;;2.40;81.00;;;;;;4899329;29;20048;-77
2021/04/13 03:02:43;;;;;;;11.50;7.22;;;2.40;81.10;;;;;;4897578;29;20398;-77
2021/04/13 03:05:17;;;;;;;17.63;7.75;;;2.40;81.10;;;;;;4899726;29;20443;-77
2021/04/13 03:07:43;;;;;;;14.23;8.05;;;2.40;81.20;;;;;;4900216;29;20031;-77
2021/04/13 03:10:12;;;;;;;14.68;8.20;;;2.40;81.20;;;;;;4882019;29;20056;-77
2021/04/13 03:12:45;;;;;;;11.45;8.48;;;2.30;81.30;;;;;;4898842;29;20084;-77
2021/04/13 03:15:15;;;;;;;13.88;7.93;;;2.30;81.40;;;;;;4912636;29;20028;-77
2021/04/13 03:17:47;;;;;;;13.98;8.05;;;2.30;81.40;;;;;;4900422;29;20470;-77
2021/04/13 03:20:17;;;;;;;15.27;8.95;;;2.30;81.60;;;;;;4898518;29;20439;-77
2021/04/13 03:22:43;;;;;;;14.27;8.57;;;2.30;81.50;;;;;;4898448;29;20151;-77
2021/04/13 03:25:12;;;;;;;12.00;8.27;;;2.20;81.50;;;;;;4898831;29;20383;-77
2021/04/13 03:27:40;;;;;;;13.57;9.02;;;2.30;81.70;;;;;;4898072;29;20029;-77
2021/04/13 03:30:09;;;;;;;16.58;9.00;;;2.30;81.70;;;;;;4898866;29;20045;-77
2021/04/13 03:32:40;;;;;;;13.70;9.52;;;2.30;81.70;;;;;;4912927;29;20494;-77
2021/04/13 03:35:07;;;;;;;13.25;9.23;;;2.30;81.80;;;;;;4907315;29;20051;-77
2021/04/13 03:37:35;;;;;;;14.35;9.02;;;2.20;81.70;;;;;;4896292;29;20032;-77
2021/04/13 03:40:07;;;;;;;15.52;9.23;;;2.20;81.80;;;;;;4913025;29;20037;-77
2021/04/13 03:42:35;;;;;;;13.13;9.02;;;2.20;82.00;;;;;;4916439;29;20063;-77
2021/04/13 03:45:03;;;;;;;14.40;9.57;;;2.20;81.90;;;;;;4917695;29;20036;-76
2021/04/13 03:47:36;;;;;;;14.98;9.02;;;2.20;82.00;;;;;;4911037;29;20039;-77
2021/04/13 03:50:06;;;;;;;16.35;9.15;;;2.10;82.10;;;;;;4905249;29;20040;-77
2021/04/13 03:52:34;;;;;;;15.85;9.85;;;2.20;82.10;;;;;;4890968;29;20534;-77
2021/04/13 03:55:16;;;;;;;18.00;9.38;;;2.10;82.00;;;;;;4905756;29;20049;-77
2021/04/13 03:57:44;;;;;;;14.90;8.93;;;2.10;82.10;;;;;;4917310;29;20024;-77
2021/04/13 04:00:14;;;;;;;16.85;9.32;;;2.10;82.00;;;;;;4916173;29;20044;-77
2021/04/13 04:02:40;;;;;;;15.50;9.25;;;2.10;82.10;;;;;;4900461;29;20028;-77
2021/04/13 04:05:08;;;;;;;14.65;9.60;;;2.10;82.10;;;;;;4897175;29;20040;-77
2021/04/13 04:07:38;;;;;;;13.35;9.20;;;2.00;82.20;;;;;;4898374;29;20016;-77
2021/04/13 04:10:33;;;;;;;19.65;9.55;;;2.00;82.30;;;;;;4916418;29;20072;-77
2021/04/13 04:13:07;;;;;;;17.17;9.85;;;2.00;82.40;;;;;;4875007;29;20048;-77
2021/04/13 04:15:45;;;;;;;15.02;9.63;;;1.90;82.50;;;;;;4895497;29;20035;-76
2021/04/13 04:18:34;;;;;;;17.23;9.52;;;2.00;82.60;;;;;;4915908;29;20032;-76
2021/04/13 04:21:12;;;;;;;15.65;9.07;;;1.90;83.40;;;;;;4909207;29;20055;-77
2021/04/13 04:23:38;;;;;;;14.55;9.18;;;1.90;82.70;;;;;;4878927;29;20402;-76
2021/04/13 04:26:06;;;;;;;16.50;8.95;;;1.90;82.90;;;;;;4878081;29;20033;-77
2021/04/13 04:28:41;;;;;;;16.40;9.73;;;1.90;82.90;;;;;;4878651;29;20029;-76
2021/04/13 04:31:35;;;;;;;20.98;9.00;;;1.90;83.00;;;;;;4882242;29;20028;-77
2021/04/13 04:34:21;;;;;;;16.23;8.73;;;1.90;83.10;;;;;;4908846;29;20671;-77
2021/04/13 04:36:50;;;;;;;17.60;10.32;;;1.90;83.10;;;;;;4872981;29;20044;-76
2021/04/13 04:39:33;;;;;;;16.80;9.52;;;1.90;82.90;;;;;;4916839;29;20039;-77
2021/04/13 04:42:20;;;;;;;15.00;9.48;;;1.80;83.20;;;;;;4887217;29;20487;-77
2021/04/13 04:45:20;;;;;;;14.38;8.85;;;1.80;83.40;;;;;;4913424;29;20035;-77
2021/04/13 04:47:47;;;;;;;17.38;9.38;;;1.80;84.00;;;;;;4902771;29;20033;-77
2021/04/13 04:50:19;;;;;;;17.70;9.93;;;1.80;83.10;;;;;;4898175;29;20029;-77
2021/04/13 04:52:45;;;;;;;18.50;10.18;;;1.90;83.30;;;;;;4897845;29;20032;-76
2021/04/13 04:55:12;;;;;;;16.98;9.90;;;1.80;83.20;;;;;;4881184;29;20498;-77
2021/04/13 04:57:37;;;;;;;16.92;10.45;;;1.80;83.70;;;;;;4897753;29;20041;-76
2021/04/13 05:00:05;;;;;;;16.15;10.02;;;1.80;83.20;;;;;;4900233;29;20057;-77
2021/04/13 05:02:31;;;;;;;16.75;10.38;;;1.80;83.20;;;;;;4897913;29;20502;-76
2021/04/13 05:04:57;;;;;;;17.00;10.57;;;1.80;83.20;;;;;;4896498;29;20028;-76
2021/04/13 05:07:22;;;;;;;22.75;10.73;;;1.80;83.30;;;;;;4911874;29;20036;-76
2021/04/13 05:09:48;;;;;;;13.88;8.93;;;1.70;83.30;;;;;;4912220;29;20040;-76
2021/04/13 05:12:16;;;;;;;17.65;10.10;;;1.70;83.40;;;;;;4915550;29;20028;-77
2021/04/13 05:14:42;;;;;;;16.52;9.52;;;1.70;83.60;;;;;;4912144;29;20046;-76
2021/04/13 05:17:11;;;;;;;16.85;9.75;;;1.70;83.70;;;;;;4906268;29;20040;-76
2021/04/13 05:19:36;;;;;;;20.20;10.30;;;1.70;83.70;;;;;;4882430;29;20037;-77
2021/04/13 05:22:02;;;;;;;19.35;10.30;;;1.70;83.80;;;;;;4897593;29;20675;-77
2021/04/13 05:24:28;;;;;;;14.88;10.23;;;1.70;83.90;;;;;;4898190;29;20051;-77
2021/04/13 05:26:54;;;;;;;18.23;10.15;;;1.70;83.90;;;;;;4899898;29;20029;-77
2021/04/13 05:29:19;;;;;;;18.92;9.88;;;1.80;84.00;;;;;;4901276;29;20064;-77
2021/04/13 05:31:45;;;;;;;18.15;10.35;;;1.80;84.00;;;;;;4901096;29;20505;-77
2021/04/13 05:34:11;;;;;;;22.23;10.52;;;1.90;83.90;;;;;;4901127;29;20104;-77
2021/04/13 05:36:38;;;;;;;16.17;10.30;;;1.90;83.70;;;;;;4899833;29;20029;-77
2021/04/13 05:39:05;;;;;;;18.42;10.32;;;1.90;84.40;;;;;;4898916;29;20397;-77
2021/04/13 05:41:32;;;;;;;18.85;10.55;;;1.90;83.90;;;;;;4906789;29;20028;-77
2021/04/13 05:43:58;;;;;;;16.75;10.25;;;2.00;84.10;;;;;;4908589;29;20382;-77
2021/04/13 05:46:25;;;;;;;18.65;9.95;;;2.00;83.90;;;;;;4912588;29;20029;-77
2021/04/13 05:48:52;;;;;;;15.60;9.65;;;2.10;84.00;;;;;;4905307;29;20020;-77
2021/04/13 05:51:18;;;;;;;17.23;9.93;;;2.10;83.80;;;;;;4919697;29;20035;-77
2021/04/13 05:53:44;;;;;;;16.20;10.07;;;2.20;83.80;;;;;;4909907;29;20115;-76
2021/04/13 05:56:17;;;;;;;14.93;8.63;;;2.20;83.60;;;;;;4899848;29;20156;-77
2021/04/13 05:58:49;;;;;;;17.95;9.82;;;2.30;83.70;;;;;;4912517;29;20119;-77
2021/04/13 06:01:15;;;;;;;14.77;9.10;;;2.30;83.60;;;;;;4904824;29;20040;-77
2021/04/13 06:03:44;;;;;;;18.20;9.82;;;2.40;83.50;;;;;;4900357;29;20443;-77
2021/04/13 06:06:10;;;;;;;16.45;10.02;;;2.40;83.60;;;;;;4900137;29;20025;-77
2021/04/13 06:08:36;;;;;;;13.95;9.55;;;2.50;83.40;;;;;;4898599;29;20084;-77
2021/04/13 06:11:01;;;;;;;14.23;9.27;;;2.60;83.30;;;;;;4900547;29;20036;-77
2021/04/13 06:13:27;;;;;;;12.57;8.75;;;2.70;83.20;;;;;;4900588;29;20036;-77
2021/04/13 06:15:56;;;;;;;18.30;9.35;;;2.70;83.00;;;;;;4900488;29;20025;-77
2021/04/13 06:18:23;;;;;;;13.15;8.80;;;2.80;82.90;;;;;;4898629;29;20155;-77
2021/04/13 06:20:49;;;;;;;16.45;9.55;;;2.90;82.80;;;;;;4900344;29;20041;-77
2021/04/13 06:23:15;;;;;;;16.42;9.38;;;3.00;82.90;;;;;;4900272;29;20452;-77
2021/04/13 06:25:42;;;;;;;16.45;9.13;;;3.10;82.80;;;;;;4900131;29;20064;-77
2021/04/13 06:28:08;;;;;;;18.10;8.88;;;3.10;83.00;;;;;;4900580;29;20029;-77
2021/04/13 06:39:59;;;;;;;18.60;9.20;;;3.50;83.00;;;;;;4905179;29;20032;-77
2021/04/13 06:42:33;;;;;;;15.95;8.73;;;3.60;82.80;;;;;;4899762;29;20021;-77
2021/04/13 06:45:05;;;;;;;16.85;9.20;;;3.70;82.70;;;;;;4904776;29;20039;-77
2021/04/13 06:47:48;;;;;;;16.45;8.60;;;3.80;82.50;;;;;;4908605;29;20052;-78
2021/04/13 06:50:30;;;;;;;16.63;7.97;;;3.90;82.30;;;;;;4893233;29;20033;-77
2021/04/13 06:53:32;;;;;;;15.98;8.93;;;4.10;82.10;;;;;;4899637;29;20036;-78
2021/04/13 06:56:11;;;;;;;15.73;8.82;;;4.20;82.00;;;;;;4899688;29;20033;-78
2021/04/13 06:58:42;;;;;;;15.25;8.23;;;4.30;82.10;;;;;;4900711;29;20046;-78
2021/04/13 07:01:22;;;;;;;11.90;8.40;;;4.30;81.70;;;;;;4917239;29;20388;-73
2021/04/13 07:04:15;;;;;;;18.38;8.68;;;4.50;81.80;;;;;;4898358;29;20051;-73
2021/04/13 07:06:57;;;;;;;16.25;8.02;;;4.60;81.50;;;;;;4897014;29;20044;-73
2021/04/13 07:09:39;;;;;;;14.38;7.65;;;4.70;81.40;;;;;;4880163;29;20047;-73
2021/04/13 07:12:35;;;;;;;17.88;8.63;;;4.80;81.20;;;;;;4914462;29;20474;-73
2021/04/13 07:15:21;;;;;;;12.23;6.95;;;5.00;80.90;;;;;;4898466;29;20112;-77
2021/04/13 07:17:54;;;;;;;12.20;6.32;;;5.10;80.90;;;;;;4906702;29;20075;-77
2021/04/13 07:20:23;;;;;;;13.80;6.38;;;5.20;80.60;;;;;;4912939;29;20028;-77
2021/04/13 07:23:35;;;;;;;14.93;6.47;;;5.30;80.30;;;;;;4899060;29;20031;-78
2021/04/13 07:26:31;;;;;;;12.40;5.82;;;5.50;80.20;;;;;;4880675;29;20036;-78
2021/04/13 07:29:18;;;;;;;12.68;6.20;;;5.60;79.80;;;;;;4914730;29;20031;-78
2021/04/13 07:31:46;;;;;;;13.85;6.35;;;5.70;79.30;;;;;;4898720;29;20061;-77
2021/04/13 07:34:12;;;;;;;21.02;5.45;;;5.90;78.50;;;;;;4897739;29;20458;-78
2021/04/13 07:36:45;;;;;;;12.80;5.18;;;6.00;78.30;;;;;;4897703;29;20040;-78
2021/04/13 07:39:13;;;;;;;11.38;4.75;;;6.20;78.20;;;;;;4895123;29;20029;-78
2021/04/13 07:41:53;;;;;;;11.05;4.43;;;6.30;77.30;;;;;;4896968;29;20525;-78
2021/04/13 07:44:36;;;;;;;12.90;4.18;;;6.40;76.70;;;;;;4897435;29;20510;-78
2021/04/13 07:47:07;;;;;;;14.88;4.75;;;6.60;76.70;;;;;;4899203;29;20371;-74
2021/04/13 07:49:56;;;;;;;13.73;4.28;;;6.70;76.80;;;;;;4897688;29;20080;-75
2021/04/13 07:53:06;;;;;;;14.40;3.83;;;6.80;76.00;;;;;;4897723;29;20107;-74
2021/04/13 07:55:49;;;;;;;7.78;3.40;;;6.90;75.20;;;;;;4876940;29;20059;-75
2021/04/13 07:58:14;;;;;;;9.15;3.55;;;7.00;75.30;;;;;;4894117;29;20040;-75
2021/04/13 08:00:46;;;;;;;9.85;3.50;;;7.10;74.40;;;;;;4897460;29;20039;-75
2021/04/13 08:03:25;;;;;;;5.75;2.92;;;7.20;72.70;;;;;;4897784;29;20028;-75
2021/04/13 08:05:53;;;;;;;9.70;2.92;;;7.30;73.30;;;;;;4899242;29;20418;-72
2021/04/13 08:08:35;;;;;;;10.95;2.80;;;7.40;71.70;;;;;;4896859;29;20045;-72
2021/04/13 08:11:20;;;;;;;7.75;3.67;;;7.50;72.10;;;;;;4896407;29;20025;-72
2021/04/13 08:13:51;;;;;;;13.07;3.08;;;7.60;71.80;;;;;;4897113;29;20504;-72
2021/04/13 08:16:29;;;;;;;9.48;2.95;;;7.70;70.30;;;;;;4897449;29;20037;-72
2021/04/13 08:19:13;;;;;;;7.10;2.97;;;7.80;70.70;;;;;;4896475;29;20039;-72
2021/04/13 08:21:39;;;;;;;6.68;2.38;;;7.90;68.80;;;;;;4896467;29;20525;-72
2021/04/13 08:24:05;;;;;;;11.00;3.22;;;8.00;69.50;;;;;;4881156;29;20051;-72
2021/04/13 08:26:30;;;;;;;14.95;2.95;;;8.10;69.40;;;;;;4899583;29;20032;-72
2021/04/13 08:28:58;;;;;;;11.80;2.83;;;8.10;68.90;;;;;;4897141;29;20012;-72
2021/04/13 08:34:25;;;;;;;8.23;2.40;;;8.30;68.60;;;;;;4897694;29;20072;-72
2021/04/13 08:37:04;;;;;;;6.60;2.33;;;8.50;68.10;;;;;;4896144;29;20063;-72
2021/04/13 08:39:46;;;;;;;5.80;2.05;;;8.70;67.80;;;;;;4889228;29;20040;-73
2021/04/13 08:42:32;;;;;;;8.30;2.35;;;8.80;67.20;;;;;;4895768;29;20053;-72
2021/04/13 08:45:11;;;;;;;8.55;2.15;;;9.10;66.70;;;;;;4890420;29;20024;-73
2021/04/13 08:47:44;;;;;;;5.35;1.75;;;9.10;65.70;;;;;;4902708;29;20629;-72
2021/04/13 08:50:36;;;;;;;12.70;1.63;;;9.00;65.90;;;;;;4903241;29;20538;-72
2021/04/13 08:53:09;;;;;;;16.65;2.50;;;9.00;65.60;;;;;;4878907;29;20108;-73
2021/04/13 08:55:35;;;;;;;8.95;2.22;;;8.90;65.90;;;;;;4910994;29;20769;-73
2021/04/13 08:58:23;;;;;;;8.45;2.47;;;9.10;64.30;;;;;;4898941;29;20029;-72
2021/04/13 09:00:51;;;;;;;9.52;2.15;;;9.20;62.60;;;;;;4882626;29;20049;-73
2021/04/13 09:03:23;;;;;;;8.88;2.05;;;9.10;62.80;;;;;;4890469;29;20491;-72
2021/04/13 09:06:14;;;;;;;14.10;2.35;;;9.10;63.80;;;;;;4901353;29;20028;-72
2021/04/13 09:08:59;;;;;;;13.35;2.67;;;9.10;63.50;;;;;;4899816;29;20167;-72
2021/04/13 09:11:52;;;;;;;12.77;2.65;;;9.00;62.50;;;;;;4899950;29;20025;-72
2021/04/13 09:14:24;;;;;;;6.95;2.00;;;8.70;61.90;;;;;;4900974;29;20061;-72
2021/04/13 09:17:00;;;;;;;6.10;1.80;;;8.40;63.00;;;;;;4899473;29;20363;-71
2021/04/13 09:19:48;;;;;;;6.60;1.90;;;8.30;64.30;;;;;;4904622;29;20036;-72
2021/04/13 09:22:22;;;;;;;9.65;2.05;;;8.20;64.90;;;;;;4903251;29;20390;-71
2021/04/13 09:24:53;;;;;;;9.50;1.80;;;8.20;65.20;;;;;;4907549;29;20044;-70
2021/04/13 09:27:42;;;;;;;8.43;1.80;;;8.60;64.50;;;;;;4899777;29;20037;-71
2021/04/13 09:30:17;;;;;;;;;;;8.90;61.80;;;;;;4881201;29;20029;-71
2021/04/13 09:32:45;;;;;;;6.22;1.45;;;9.10;62.30;;;;;;4880730;29;20325;-70
2021/04/13 09:35:37;;;;;;;13.85;2.05;;;9.50;61.10;;;;;;4882006;29;20378;-70
2021/04/13 09:38:27;;;;;;;6.25;1.52;;;9.80;58.20;;;;;;4887104;29;20031;-70
2021/04/13 09:41:30;;;;;;;4.47;1.30;;;9.60;59.20;;;;;;4891093;29;20032;-70
2021/04/13 09:44:02;;;;;;;4.10;1.40;;;9.30;59.90;;;;;;4899200;29;20032;-70
2021/04/13 09:46:46;;;;;;;12.90;2.38;;;9.00;61.50;;;;;;4900623;29;20049;-70
2021/04/13 09:49:44;;;;;;;9.90;1.98;;;8.80;62.10;;;;;;4899256;29;20020;-70
2021/04/13 09:52:14;;;;;;;3.45;1.02;;;9.00;59.70;;;;;;4900606;29;20020;-70
2021/04/13 09:54:49;;;;;;;8.30;1.70;;;9.30;60.20;;;;;;4899073;29;20029;-71
2021/04/13 09:57:26;;;;;;;6.32;1.20;;;9.70;57.30;;;;;;4900388;29;20510;-70
2021/04/13 10:00:03;;;;;;;6.75;0.93;;;9.90;55.80;;;;;;4898713;29;20052;-70
2021/04/13 10:02:53;;;;;;;3.97;0.98;;;10.40;56.70;;;;;;4903799;29;20478;-71
2021/04/13 10:05:26;;;;;;;6.63;2.00;;;10.90;56.10;;;;;;4897667;29;20060;-71
2021/04/13 10:07:59;;;;;;;7.03;1.40;;;11.20;54.60;;;;;;4898712;29;20040;-71
2021/04/13 10:10:43;;;;;;;7.10;1.20;;;11.00;53.60;;;;;;4907110;29;20123;-71
2021/04/13 10:13:29;;;;;;;8.27;1.40;;;10.60;54.20;;;;;;4900021;29;20028;-71
2021/04/13 10:16:06;;;;;;;8.93;1.80;;;10.20;54.70;;;;;;4888224;29;20029;-72
2021/04/13 10:18:48;;;;;;;6.57;2.00;;;9.90;53.50;;;;;;4900223;29;20025;-72
2021/04/13 10:21:30;;;;;;;11.85;1.75;;;9.80;55.20;;;;;;4899953;29;20025;-72
2021/04/13 10:24:23;;;;;;;10.23;1.67;;;10.20;54.20;;;;;;4899871;29;20029;-78
2021/04/13 10:27:25;;;;;;;3.65;1.45;;;10.40;54.40;;;;;;4880445;29;20120;-78
2021/04/13 10:30:21;;;;;;;6.95;1.38;;;10.70;52.30;;;;;;4897915;29;20092;-78
2021/04/13 10:33:24;;;;;;;7.03;1.58;;;11.00;53.10;;;;;;4885009;29;20035;-78
2021/04/13 10:35:58;;;;;;;4.32;1.17;;;11.00;51.20;;;;;;4890709;29;20022;-80
2021/04/13 10:39:07;;;;;;;6.97;1.20;;;10.50;51.40;;;;;;4888068;29;20029;-89
2021/04/13 10:41:52;;;;;;;4.72;0.95;;;10.10;50.90;;;;;;4915488;29;20063;-82
2021/04/13 10:44:41;;;;;;;6.15;1.10;;;9.70;52.60;;;;;;4908400;29;20127;-82
2021/04/13 10:47:29;;;;;;;4.03;1.20;;;9.70;53.50;;;;;;4899297;29;20028;-88
2021/04/13 10:50:22;;;;;;;5.95;1.25;;;9.90;53.30;;;;;;4896011;29;20040;-82
2021/04/13 10:53:17;;;;;;;4.35;1.10;;;10.50;53.40;;;;;;4879411;29;20080;-82
2021/04/13 10:56:08;;;;;;;6.70;1.08;;;11.10;52.50;;;;;;4880662;29;20029;-82
2021/04/13 10:58:51;;;;;;;3.53;0.95;;;11.40;51.30;;;;;;4881033;29;20031;-82
2021/04/13 11:01:19;;;;;;;7.18;1.58;;;11.50;47.20;;;;;;4881107;29;20036;-82
2021/04/13 11:04:19;;;;;;;5.27;1.10;;;11.20;46.70;;;;;;4881004;29;20029;-82
2021/04/13 11:07:10;;;;;;;;;;;10.90;48.20;;;;;;4880199;29;20053;-82
2021/04/13 11:10:18;;;;;;;4.90;1.15;;;11.10;47.80;;;;;;4880986;29;19914;-82
2021/04/13 11:13:05;;;;;;;3.08;1.08;;;11.50;49.00;;;;;;4880958;29;20021;-82
2021/04/13 11:15:44;;;;;;;4.70;1.00;;;11.90;48.20;;;;;;4880872;29;20021;-82
2021/04/13 11:18:39;;;;;;;6.50;1.20;;;12.20;47.70;;;;;;4880770;29;20391;-83
2021/04/13 11:21:21;;;;;;;3.55;0.90;;;12.30;47.20;;;;;;4863415;29;20052;-83
2021/04/13 11:24:14;;;;;;;3.13;0.70;;;12.20;48.50;;;;;;4880099;29;20441;-83
2021/04/13 11:27:28;;;;;;;7.18;1.20;;;12.10;47.90;;;;;;4880716;29;20033;-83
2021/04/13 11:30:05;;;;;;;3.72;1.05;;;12.10;44.70;;;;;;4880623;29;20486;-82
2021/04/13 11:32:58;;;;;;;9.20;1.35;;;11.80;46.90;;;;;;4880549;29;20049;-82
2021/04/13 11:35:34;;;;;;;4.32;1.42;;;11.60;46.90;;;;;;4879218;29;20059;-82
2021/04/13 11:38:09;;;;;;;4.95;0.95;;;11.60;47.90;;;;;;4880326;29;20360;-82
2021/04/13 11:41:19;;;;;;;3.80;0.98;;;11.90;48.60;;;;;;4880340;29;20060;-82
2021/04/13 11:43:56;;;;;;;3.05;1.00;;;12.30;47.30;;;;;;4880209;29;20045;-82
2021/04/13 11:46:47;;;;;;;4.20;0.85;;;12.50;45.80;;;;;;4880210;29;20032;-82
2021/04/13 11:49:20;;;;;;;2.53;1.00;;;12.30;46.00;;;;;;4880032;29;20028;-81
2021/04/13 11:51:58;;;;;;;5.93;1.13;;;12.10;46.80;;;;;;4880153;29;20352;-82
2021/04/13 11:54:39;;;;;;;4.00;0.90;;;11.80;47.10;;;;;;4879519;29;20120;-83
2021/04/13 11:57:18;;;;;;;4.00;0.98;;;11.50;45.90;;;;;;4878481;29;20040;-82
2021/04/13 12:00:09;;;;;;;3.47;1.00;;;11.20;45.40;;;;;;4878564;29;20105;-83
2021/04/13 12:02:43;;;;;;;3.80;1.08;;;11.10;46.10;;;;;;4880108;29;20116;-82
2021/04/13 12:05:36;;;;;;;3.45;0.98;;;11.20;46.40;;;;;;4880080;29;20032;-82
2021/04/13 12:08:04;;;;;;;2.85;0.80;;;11.40;45.60;;;;;;4879968;29;20025;-82
2021/04/13 12:10:29;;;;;;;4.85;0.98;;;11.70;44.90;;;;;;4880020;29;20025;-82
2021/04/13 12:12:56;;;;;;;3.47;0.82;;;12.00;45.50;;;;;;4879963;29;20029;-82
2021/04/13 12:15:21;;;;;;;4.88;0.85;;;12.40;45.70;;;;;;4879912;29;20041;-82
2021/04/13 12:17:54;;;;;;;2.83;0.88;;;12.80;44.30;;;;;;4879859;29;20029;-82
2021/04/13 12:20:39;;;;;;;6.32;0.90;;;13.00;43.40;;;;;;4878464;29;20116;-82
2021/04/13 12:23:04;;;;;;;7.70;0.80;;;13.40;43.00;;;;;;4879533;29;20029;-82
2021/04/13 12:25:51;;;;;;;8.02;0.77;;;13.20;41.20;;;;;;4879790;29;20040;-82
2021/04/13 12:28:38;;;;;;;3.13;0.80;;;12.70;39.70;;;;;;4878184;29;20029;-82
2021/04/13 12:31:36;;;;;;;1.95;0.52;;;12.30;42.00;;;;;;4872638;29;20486;-82
2021/04/13 12:34:06;;;;;;;3.07;0.77;;;12.50;41.10;;;;;;4862456;29;20069;-82
2021/04/13 12:36:53;;;;;;;2.50;0.63;;;12.70;41.90;;;;;;4879108;29;20037;-82
2021/04/13 12:39:51;;;;;;;3.53;0.70;;;13.20;42.10;;;;;;4879507;29;20025;-82
2021/04/13 12:42:39;;;;;;;1.75;0.50;;;13.50;40.20;;;;;;4879671;29;20048;-82
2021/04/13 12:45:22;;;;;;;2.22;0.63;;;13.60;39.90;;;;;;4878250;29;20494;-82
2021/04/13 12:47:57;;;;;;;2.42;0.70;;;13.40;40.20;;;;;;4878358;29;20028;-82
2021/04/13 12:50:25;;;;;;;3.38;0.80;;;13.20;39.10;;;;;;4878334;29;20080;-82
2021/04/13 12:52:52;;;;;;;2.58;0.80;;;12.80;40.70;;;;;;4878331;29;20030;-82
2021/04/13 12:55:19;;;;;;;1.85;0.80;;;12.60;41.40;;;;;;4893729;29;20037;-81
2021/04/13 12:58:03;;;;;;;5.72;1.08;;;12.70;42.00;;;;;;4893927;29;20057;-82
2021/04/13 13:00:33;;;;;;;4.78;0.98;;;12.50;40.10;;;;;;4878206;29;20384;-82
2021/04/13 13:03:38;;;;;;;3.67;0.90;;;12.10;39.50;;;;;;4878042;29;20040;-82
2021/04/13 13:06:26;;;;;;;3.25;0.73;;;11.70;41.10;;;;;;4839758;29;20030;-82
2021/04/13 13:08:58;;;;;;;2.25;0.50;;;11.50;42.50;;;;;;4892629;29;20041;-82
2021/04/13 13:11:24;;;;;;;1.10;0.40;;;11.50;42.70;;;;;;4879487;29;20356;-82
2021/04/13 13:13:51;;;;;;;4.00;0.60;;;11.70;42.90;;;;;;4879059;29;20105;-82
2021/04/13 13:16:24;;;;;;;2.78;0.30;;;12.10;42.30;;;;;;4878764;29;20029;-82
2021/04/13 13:18:52;;;;;;;2.95;0.77;;;12.50;41.30;;;;;;4877514;29;20116;-83
2021/04/13 13:21:21;;;;;;;2.43;0.70;;;13.00;40.30;;;;;;4877618;29;20029;-82
2021/04/13 13:23:53;;;;;;;3.08;0.70;;;13.40;40.50;;;;;;4879053;29;20329;-82
2021/04/13 13:26:24;;;;;;;3.47;0.70;;;13.70;39.60;;;;;;4877777;29;20088;-82
2021/04/13 13:28:50;;;;;;;3.50;0.75;;;13.80;35.80;;;;;;4877869;29;20025;-82
2021/04/13 13:31:32;;;;;;;1.75;0.60;;;13.70;35.50;;;;;;4879078;29;20029;-82
2021/04/13 13:34:16;;;;;;;2.33;0.52;;;13.90;36.50;;;;;;4877879;29;20028;-82
2021/04/13 13:36:45;;;;;;;1.73;0.70;;;14.10;36.40;;;;;;4879153;29;20048;-82
2021/04/13 13:39:14;;;;;;;1.88;0.50;;;14.00;37.40;;;;;;4879382;29;20025;-82
2021/04/13 13:41:44;;;;;;;2.72;0.40;;;13.80;37.50;;;;;;4879131;29;20037;-82
2021/04/13 13:44:20;;;;;;;3.88;0.50;;;13.70;38.30;;;;;;4878917;29;20033;-82
2021/04/13 13:46:56;;;;;;;3.00;0.60;;;13.80;38.40;;;;;;4880258;29;20629;-82
2021/04/13 13:49:36;;;;;;;1.27;0.38;;;14.00;38.80;;;;;;4882429;29;20029;-82
2021/04/13 13:52:10;;;;;;;2.40;0.70;;;14.30;38.60;;;;;;4882482;29;20432;-82